createdAt,value
2023-01-23T00:03:19.606Z,10.97
2023-01-23T00:08:21.672Z,11.27
2023-01-23T00:13:23.349Z,11.50
2023-01-23T00:18:24.940Z,10.97
2023-01-23T00:23:26.480Z,10.77
2023-01-23T00:28:28.027Z,10.57
2023-01-23T00:33:29.610Z,11.40
2023-01-23T00:38:31.193Z,10.83
2023-01-23T00:43:33.134Z,10.70
2023-01-23T00:48:34.696Z,10.97
2023-01-23T00:53:36.307Z,11.13
2023-01-23T00:58:37.943Z,11.63
2023-01-23T01:03:39.864Z,11.93
2023-01-23T01:08:42.878Z,11.37
2023-01-23T01:13:44.949Z,10.50
2023-01-23T01:18:46.546Z,10.60
2023-01-23T01:23:48.173Z,10.60
2023-01-23T01:28:49.792Z,10.70
2023-01-23T01:33:51.404Z,10.57
2023-01-23T01:38:53.767Z,10.40
2023-01-23T01:43:57.424Z,10.47
2023-01-23T01:48:59.580Z,10.77
2023-01-23T01:54:20.076Z,9.60
2023-01-23T01:59:23.794Z,9.83
2023-01-23T02:04:25.452Z,10.70
2023-01-23T02:09:27.159Z,10.23
2023-01-23T02:14:28.907Z,10.30
2023-01-23T02:19:49.531Z,10.40
2023-01-23T02:25:05.856Z,9.77
2023-01-23T02:30:08.611Z,9.77
2023-01-23T02:35:30.887Z,9.90
2023-01-23T02:40:42.527Z,10.03
2023-01-23T02:45:47.712Z,9.90
2023-01-23T02:50:51.016Z,10.07
2023-01-23T02:55:52.852Z,9.97
2023-01-23T03:00:57.364Z,10.20
2023-01-23T03:06:03.158Z,9.43
2023-01-23T03:11:05.406Z,10.57
2023-01-23T03:16:07.530Z,10.13
2023-01-23T03:21:09.293Z,10.60
2023-01-23T03:26:11.676Z,10.03
2023-01-23T03:31:14.059Z,10.50
2023-01-23T03:36:15.904Z,10.40
2023-01-23T03:41:26.551Z,10.23
2023-01-23T03:46:34.072Z,9.93
2023-01-23T03:51:35.942Z,10.07
2023-01-23T03:56:38.112Z,10.37
2023-01-23T04:01:44.178Z,9.70
2023-01-23T04:06:45.804Z,9.87
2023-01-23T04:11:47.509Z,9.73
2023-01-23T04:16:50.325Z,10.47
2023-01-23T04:21:53.219Z,10.37
2023-01-23T04:26:55.112Z,10.37
2023-01-23T04:31:57.104Z,9.93
2023-01-23T04:36:58.768Z,9.77
2023-01-23T04:42:00.985Z,11.20
2023-01-23T04:47:17.284Z,11.10
2023-01-23T04:52:19.631Z,10.20
2023-01-23T04:57:28.970Z,10.53
2023-01-23T05:02:42.841Z,11.20
2023-01-23T05:07:44.718Z,12.03
2023-01-23T05:12:49.646Z,10.10
2023-01-23T05:17:51.564Z,11.30
2023-01-23T05:22:54.268Z,11.10
2023-01-23T05:28:03.680Z,11.20
2023-01-23T05:33:06.636Z,10.70
2023-01-23T05:38:08.325Z,11.23
2023-01-23T05:43:15.108Z,11.67
2023-01-23T05:48:39.216Z,11.77
2023-01-23T05:53:44.946Z,12.40
2023-01-23T05:58:47.594Z,12.63
2023-01-23T06:03:57.743Z,12.13
2023-01-23T06:09:09.054Z,11.57
2023-01-23T06:14:11.200Z,12.50
2023-01-23T06:19:13.118Z,12.53
2023-01-23T06:24:15.637Z,12.00
2023-01-23T06:29:17.291Z,13.97
2023-01-23T06:34:19.190Z,13.83
2023-01-23T06:39:30.457Z,14.63
2023-01-23T06:44:32.665Z,14.43
2023-01-23T06:49:34.813Z,14.47
2023-01-23T06:54:36.761Z,13.37
2023-01-23T06:59:40.688Z,13.73
2023-01-23T07:04:44.969Z,14.50
2023-01-23T07:09:47.275Z,13.60
2023-01-23T07:14:53.622Z,14.50
2023-01-23T07:20:05.131Z,14.43
2023-01-23T07:25:08.872Z,14.47
2023-01-23T07:30:12.291Z,14.90
2023-01-23T07:35:13.847Z,14.97
2023-01-23T07:40:15.746Z,14.67
2023-01-23T07:45:17.334Z,14.37
2023-01-23T07:50:19.366Z,14.30
2023-01-23T07:55:21.123Z,16.13
2023-01-23T08:00:25.251Z,15.33
2023-01-23T08:05:28.005Z,13.83
2023-01-23T08:10:29.716Z,13.17
2023-01-23T08:15:31.279Z,12.57
2023-01-23T08:20:33.082Z,13.13
2023-01-23T08:25:34.876Z,13.80
2023-01-23T08:30:37.494Z,13.33
2023-01-23T08:35:39.121Z,14.03
2023-01-23T08:40:40.757Z,13.70
2023-01-23T08:45:47.800Z,13.83
2023-01-23T08:50:50.223Z,13.37
2023-01-23T08:55:51.808Z,14.63
2023-01-23T09:00:53.544Z,14.13
2023-01-23T09:05:55.310Z,14.47
2023-01-23T09:11:05.429Z,15.23
2023-01-23T09:16:10.650Z,15.73
2023-01-23T09:21:15.929Z,14.60
2023-01-23T09:26:19.782Z,14.47
2023-01-23T09:31:21.609Z,15.00
2023-01-23T09:36:33.826Z,14.73
2023-01-23T09:41:40.360Z,15.77
2023-01-23T09:46:46.956Z,15.83
2023-01-23T09:51:52.646Z,15.03
2023-01-23T09:56:55.437Z,13.93
2023-01-23T10:01:57.108Z,15.50
2023-01-23T10:07:23.757Z,15.23
2023-01-23T10:12:46.373Z,14.23
2023-01-23T10:18:16.344Z,14.10
2023-01-23T10:23:30.191Z,15.40
2023-01-23T10:28:38.768Z,16.27
2023-01-23T10:33:47.791Z,14.50
2023-01-23T10:39:09.046Z,15.23
2023-01-23T10:44:15.527Z,13.57
2023-01-23T10:49:45.771Z,14.00
2023-01-23T10:54:47.352Z,14.50
2023-01-23T11:00:04.592Z,14.27
2023-01-23T11:05:50.422Z,15.50
2023-01-23T11:10:54.353Z,14.37
2023-01-23T11:15:56.477Z,15.30
2023-01-23T11:20:58.637Z,15.33
2023-01-23T11:26:00.275Z,14.33
2023-01-23T11:31:16.792Z,14.93
2023-01-23T11:36:18.403Z,14.50
2023-01-23T11:41:29.607Z,15.13
2023-01-23T11:46:36.979Z,15.17
2023-01-23T11:51:48.035Z,15.20
2023-01-23T11:57:12.008Z,15.13
2023-01-23T12:02:25.559Z,16.13
2023-01-23T12:07:27.646Z,16.03
2023-01-23T12:12:31.803Z,16.47
2023-01-23T12:17:36.165Z,15.17
2023-01-23T12:22:55.119Z,15.17
2023-01-23T12:28:18.117Z,15.33
2023-01-23T12:33:42.949Z,16.20
2023-01-23T12:38:50.442Z,16.73
2023-01-23T12:44:14.499Z,16.07
2023-01-23T12:49:25.210Z,16.17
2023-01-23T12:54:39.748Z,16.73
2023-01-23T12:59:56.808Z,16.80
2023-01-23T13:05:22.371Z,17.57
2023-01-23T13:10:52.165Z,16.83
2023-01-23T13:16:14.546Z,17.13
2023-01-23T13:21:35.089Z,16.80
2023-01-23T13:26:37.846Z,17.53
2023-01-23T13:31:47.073Z,17.93
2023-01-23T13:36:50.221Z,18.10
2023-01-23T13:42:11.849Z,18.77
2023-01-23T14:20:55.125Z,21.87
2023-01-23T14:25:57.237Z,22.43
2023-01-23T14:31:02.099Z,21.80
2023-01-23T14:36:03.835Z,22.13
2023-01-23T14:41:07.357Z,23.47
2023-01-23T14:46:20.270Z,22.27
2023-01-23T14:51:25.122Z,21.47
2023-01-23T14:56:35.024Z,21.33
2023-01-23T15:01:36.660Z,21.87
2023-01-23T15:06:38.285Z,22.73
2023-01-23T15:11:39.944Z,22.80
2023-01-23T15:16:41.990Z,22.53
2023-01-23T15:21:43.651Z,21.53
2023-01-23T15:26:55.711Z,22.60
2023-01-23T15:31:58.237Z,23.30
2023-01-23T15:37:00.031Z,22.50
2023-01-23T15:42:29.291Z,23.10
2023-01-23T15:47:31.786Z,22.30
2023-01-23T15:52:50.788Z,22.60
2023-01-23T15:57:53.575Z,23.63
2023-01-23T16:02:59.025Z,24.50
2023-01-23T16:08:02.730Z,24.50
2023-01-23T16:13:05.004Z,21.57
2023-01-23T16:18:07.113Z,22.80
2023-01-23T16:23:15.760Z,22.53
2023-01-23T16:28:23.720Z,20.73
2023-01-23T16:33:25.310Z,22.33
2023-01-23T16:38:29.023Z,22.10
2023-01-23T16:43:30.655Z,22.47
2023-01-23T16:48:32.243Z,22.33
2023-01-23T16:53:40.401Z,21.30
2023-01-23T16:58:42.020Z,22.73
2023-01-23T17:03:44.492Z,20.43
2023-01-23T17:08:46.278Z,20.87
2023-01-23T17:13:48.488Z,21.83
2023-01-23T17:18:50.351Z,20.60
2023-01-23T17:23:52.308Z,20.97
2023-01-23T17:28:53.921Z,20.00
2023-01-23T17:33:55.860Z,18.87
2023-01-23T17:38:58.800Z,19.93
2023-01-23T17:44:00.390Z,20.77
2023-01-23T17:49:02.479Z,19.97
2023-01-23T17:54:04.469Z,20.33
2023-01-23T17:59:06.096Z,19.43
2023-01-23T18:04:18.948Z,20.73
2023-01-23T18:09:21.271Z,21.10
2023-01-23T18:14:42.137Z,20.33
2023-01-23T18:19:44.074Z,19.27
2023-01-23T18:24:45.825Z,19.83
2023-01-23T18:30:21.639Z,20.27
2023-01-23T18:35:35.061Z,20.30
2023-01-23T18:40:43.198Z,20.47
2023-01-23T18:45:45.052Z,18.73
2023-01-23T18:51:08.416Z,19.13
2023-01-23T18:56:35.514Z,19.80
2023-01-23T19:02:08.333Z,20.97
2023-01-23T19:07:18.386Z,20.63
2023-01-23T19:12:30.825Z,20.07
2023-01-23T19:17:54.201Z,21.10
2023-01-23T19:22:59.283Z,20.50
2023-01-23T19:28:01.029Z,21.23
2023-01-23T19:33:02.617Z,20.17
2023-01-23T19:38:04.184Z,20.70
2023-01-23T19:43:14.563Z,21.00
2023-01-23T19:48:16.364Z,21.47
2023-01-23T19:53:19.311Z,21.23
2023-01-23T19:58:20.973Z,21.17
2023-01-23T20:03:22.548Z,22.17
2023-01-23T20:08:24.190Z,21.77
2023-01-23T20:13:25.733Z,21.07
2023-01-23T20:18:27.308Z,23.30
2023-01-23T20:23:29.249Z,22.57
2023-01-23T20:28:30.937Z,22.37
2023-01-23T20:33:32.514Z,21.53
2023-01-23T20:38:34.461Z,24.30
2023-01-23T20:43:36.247Z,23.23
2023-01-23T20:48:39.912Z,23.37
2023-01-23T20:53:41.894Z,24.33
2023-01-23T20:59:05.313Z,21.97
2023-01-23T21:04:07.008Z,22.30
2023-01-23T21:09:08.588Z,23.97
2023-01-23T21:14:10.147Z,30.07
2023-01-23T21:19:11.710Z,23.30
2023-01-23T21:24:13.537Z,24.33
2023-01-23T21:29:15.218Z,23.20
2023-01-23T21:34:16.892Z,24.27
2023-01-23T21:39:18.811Z,25.17
2023-01-23T21:44:20.359Z,24.40
2023-01-23T21:49:22.006Z,25.17
2023-01-23T21:54:23.605Z,24.87
2023-01-23T21:59:25.227Z,23.77
2023-01-23T22:04:27.080Z,23.63
2023-01-23T22:09:28.720Z,23.43
2023-01-23T22:14:30.549Z,24.13
2023-01-23T22:19:32.241Z,24.57
2023-01-23T22:24:33.861Z,24.90
2023-01-23T22:29:35.488Z,24.00
2023-01-23T22:34:37.021Z,24.93
2023-01-23T22:39:38.682Z,23.43
2023-01-23T22:44:40.263Z,24.33
2023-01-23T22:49:43.878Z,24.63
2023-01-23T22:54:45.458Z,24.63
2023-01-23T22:59:48.464Z,24.77
2023-01-23T23:04:51.591Z,24.30
2023-01-23T23:09:53.207Z,24.70
2023-01-23T23:14:54.847Z,23.03
2023-01-23T23:19:56.560Z,23.97
2023-01-23T23:24:58.129Z,25.70
2023-01-23T23:29:59.718Z,25.43
2023-01-23T23:35:01.353Z,25.07
2023-01-23T23:40:03.222Z,26.37
2023-01-23T23:45:06.137Z,25.67
2023-01-23T23:50:08.443Z,23.93
2023-01-23T23:55:10.077Z,24.27
